Time;durP1;ratioP1;P1;durP2;ratioP2;P2;SDS_P1;SDS_P2;PMS_P1;PMS_P2;Temp;Humidity;BMP_temperature;BMP_pressure;BME280_temperature;BME280_humidity;BME280_pressure;Samples;Min_cycle;Max_cycle;Signal;HPM_P1;HPM_P2
2022/06/26 00:02:16;;;;;;;6.30;3.75;;;;;;;18.76;100.00;94670.75;5000318;28;20206;-77
2022/06/26 00:04:47;;;;;;;8.35;3.72;;;;;;;18.85;100.00;94677.03;5002161;28;20203;-79
2022/06/26 00:10:20;;;;;;;9.77;3.50;;;;;;;18.90;100.00;94677.03;4970245;28;20209;-79
2022/06/26 00:12:59;;;;;;;5.57;3.58;;;;;;;18.82;100.00;94679.41;4977214;28;20307;-80
2022/06/26 00:15:42;;;;;;;7.07;3.50;;;;;;;18.77;100.00;94682.84;4977325;28;20212;-80
2022/06/26 00:18:27;;;;;;;9.35;3.92;;;;;;;18.78;100.00;94688.91;4973479;28;20196;-79
2022/06/26 00:21:07;;;;;;;12.48;3.70;;;;;;;18.77;100.00;94682.84;4978363;28;20216;-80
2022/06/26 00:23:45;;;;;;;7.03;3.70;;;;;;;18.83;100.00;94683.63;4978738;28;20872;-80
2022/06/26 00:26:21;;;;;;;7.50;3.95;;;;;;;18.76;100.00;94680.50;4970493;28;20231;-79
2022/06/26 00:29:04;;;;;;;6.38;3.13;;;;;;;18.87;100.00;94674.16;4969364;28;20252;-77
2022/06/26 00:31:42;;;;;;;8.40;3.60;;;;;;;19.00;100.00;94677.00;4974255;28;20227;-78
2022/06/26 00:34:19;;;;;;;7.65;3.50;;;;;;;18.98;100.00;94670.41;4982241;28;20211;-78
2022/06/26 00:37:02;;;;;;;5.43;3.50;;;;;;;18.95;100.00;94668.31;4972177;28;20235;-78
2022/06/26 00:39:39;;;;;;;8.57;3.58;;;;;;;19.02;100.00;94672.22;4980118;28;20222;-78
2022/06/26 00:42:20;;;;;;;10.63;3.65;;;;;;;19.09;100.00;94674.59;4983854;28;20203;-78
2022/06/26 00:45:02;;;;;;;8.85;3.10;;;;;;;19.34;100.00;94674.47;4975565;28;20254;-80
2022/06/26 00:47:47;;;;;;;8.18;3.40;;;;;;;19.59;100.00;94674.38;4981435;28;20319;-78
2022/06/26 00:50:30;;;;;;;9.70;3.80;;;;;;;19.64;100.00;94668.25;4973703;28;20231;-77
2022/06/26 00:53:03;;;;;;;7.13;3.25;;;;;;;19.62;100.00;94667.75;4974705;28;20211;-77
2022/06/26 00:55:42;;;;;;;9.18;3.70;;;;;;;19.53;100.00;94674.66;4979752;28;20204;-78
2022/06/26 00:58:17;;;;;;;9.85;3.78;;;;;;;19.54;100.00;94670.94;4977070;28;20298;-77
2022/06/26 01:00:58;;;;;;;8.10;3.75;;;;;;;19.47;100.00;94663.38;4971496;28;20283;-79
2022/06/26 01:03:33;;;;;;;8.70;3.80;;;;;;;19.45;100.00;94670.75;4977781;28;20679;-76
2022/06/26 01:06:11;;;;;;;7.28;3.97;;;;;;;19.39;100.00;94674.50;4989003;28;20243;-77
2022/06/26 01:08:50;;;;;;;7.53;3.95;;;;;;;19.35;100.00;94677.88;4996043;28;20211;-77
2022/06/26 01:11:30;;;;;;;6.95;3.97;;;;;;;19.39;100.00;94678.97;5000641;28;20294;-76
2022/06/26 01:14:07;;;;;;;7.65;4.55;;;;;;;19.44;100.00;94679.72;4991563;28;20726;-77
2022/06/26 01:16:49;;;;;;;9.02;4.55;;;;;;;19.36;100.00;94680.28;5001638;28;20219;-77
2022/06/26 01:19:28;;;;;;;5.53;3.78;;;;;;;19.44;100.00;94686.84;4987301;28;20286;-77
2022/06/26 01:22:14;;;;;;;8.27;4.20;;;;;;;19.55;100.00;94683.88;4997836;28;20214;-77
2022/06/26 01:24:56;;;;;;;8.15;4.10;;;;;;;19.65;100.00;94683.03;5002038;28;20195;-77
2022/06/26 01:27:43;;;;;;;8.25;4.40;;;;;;;19.46;100.00;94682.06;5001439;28;20223;-77
2022/06/26 01:30:21;;;;;;;10.23;4.47;;;;;;;19.38;100.00;94672.88;4996260;28;20265;-77
2022/06/26 01:33:05;;;;;;;6.43;4.40;;;;;;;19.37;100.00;94676.56;4993172;28;20195;-77
2022/06/26 01:35:45;;;;;;;9.32;4.60;;;;;;;19.32;100.00;94676.59;5001658;28;20207;-77
2022/06/26 01:38:25;;;;;;;9.82;4.32;;;;;;;19.31;100.00;94682.16;4990343;28;20203;-77
2022/06/26 01:41:09;;;;;;;9.43;4.15;;;;;;;19.33;100.00;94685.28;4995476;28;20335;-77
2022/06/26 01:43:46;;;;;;;10.60;4.38;;;;;;;19.34;100.00;94689.47;5001716;28;20228;-77
2022/06/26 01:46:14;;;;;;;6.65;4.72;;;;;;;19.40;100.00;94688.44;5004149;28;20285;-76
2022/06/26 01:48:57;;;;;;;10.63;4.70;;;;;;;19.37;100.00;94695.00;4987148;28;20693;-76
2022/06/26 01:51:33;;;;;;;9.77;4.97;;;;;;;19.18;100.00;94702.75;4992465;28;20203;-77
2022/06/26 01:54:14;;;;;;;7.90;4.80;;;;;;;19.09;100.00;94696.47;4993078;28;20218;-77
2022/06/26 01:56:57;;;;;;;8.88;4.82;;;;;;;19.13;100.00;94704.63;4991774;28;20219;-77
2022/06/26 01:59:37;;;;;;;7.28;4.80;;;;;;;19.25;100.00;94703.22;4995577;28;20214;-77
2022/06/26 02:02:16;;;;;;;7.72;4.53;;;;;;;19.36;100.00;94711.09;4994746;28;20239;-78
2022/06/26 02:04:58;;;;;;;11.23;4.97;;;;;;;19.09;100.00;94707.00;4994753;28;20206;-77
2022/06/26 02:07:26;;;;;;;8.68;4.97;;;;;;;19.06;100.00;94717.28;4997208;28;20223;-78
2022/06/26 02:15:51;;;;;;;10.57;5.22;;;;;;;18.92;100.00;94722.34;5003143;28;20267;-78
2022/06/26 02:18:28;;;;;;;8.07;4.40;;;;;;;18.86;100.00;94719.97;5001480;28;20199;-77
2022/06/26 02:21:09;;;;;;;10.57;4.70;;;;;;;18.83;100.00;94716.03;4998965;28;20282;-77
2022/06/26 02:23:42;;;;;;;8.70;4.60;;;;;;;18.95;100.00;94711.25;4988605;28;20208;-78
2022/06/26 02:26:24;;;;;;;6.47;4.45;;;;;;;19.11;100.00;94707.50;4995639;28;20216;-78
2022/06/26 02:29:02;;;;;;;9.80;4.72;;;;;;;19.20;100.00;94718.28;4996498;28;20274;-78
2022/06/26 02:31:38;;;;;;;13.05;5.03;;;;;;;19.23;100.00;94712.47;4993141;28;20257;-78
2022/06/26 02:34:19;;;;;;;7.05;4.35;;;;;;;19.23;100.00;94717.75;5006959;28;20247;-78
2022/06/26 02:36:55;;;;;;;9.45;4.60;;;;;;;19.19;100.00;94714.84;4993315;28;20200;-78
2022/06/26 02:39:32;;;;;;;11.88;4.70;;;;;;;19.21;100.00;94712.75;5001211;28;20286;-78
2022/06/26 02:42:14;;;;;;;9.10;4.57;;;;;;;19.43;100.00;94712.41;4992687;28;20215;-78
2022/06/26 02:44:58;;;;;;;9.52;4.65;;;;;;;19.45;100.00;94726.09;4996648;28;20283;-77
2022/06/26 02:47:34;;;;;;;10.90;4.63;;;;;;;19.45;100.00;94735.88;4998018;28;20690;-77
2022/06/26 02:50:14;;;;;;;7.28;4.50;;;;;;;19.45;100.00;94731.38;4999647;28;21279;-77
2022/06/26 02:52:57;;;;;;;12.05;4.72;;;;;;;19.28;100.00;94729.03;5003211;28;20682;-77
2022/06/26 02:55:37;;;;;;;9.98;4.80;;;;;;;19.28;100.00;94729.03;4991082;28;20200;-77
2022/06/26 02:58:12;;;;;;;8.07;4.63;;;;;;;19.22;100.00;94732.75;5000428;28;20226;-77
2022/06/26 03:01:01;;;;;;;11.90;5.43;;;;;;;19.29;100.00;94740.38;5000900;28;20214;-77
2022/06/26 03:03:40;;;;;;;12.45;5.10;;;;;;;19.30;100.00;94728.00;5003034;28;20277;-78
2022/06/26 03:06:18;;;;;;;12.77;4.72;;;;;;;19.28;100.00;94726.41;5000199;28;20231;-78
2022/06/26 03:08:52;;;;;;;9.05;4.70;;;;;;;19.16;100.00;94723.28;4992747;28;20322;-78
2022/06/26 03:11:33;;;;;;;8.52;4.60;;;;;;;19.23;100.00;94742.25;4999244;28;20199;-77
2022/06/26 03:14:11;;;;;;;11.88;4.10;;;;;;;19.22;100.00;94748.56;4996047;28;20245;-77
2022/06/26 03:16:52;;;;;;;7.63;4.50;;;;;;;19.24;100.00;94748.31;4994731;28;20207;-77
2022/06/26 03:19:34;;;;;;;7.68;4.30;;;;;;;19.20;100.00;94734.88;4989761;28;20204;-77
2022/06/26 03:22:07;;;;;;;7.50;3.97;;;;;;;19.26;100.00;94741.72;4998029;28;20212;-77
2022/06/26 03:24:45;;;;;;;9.05;4.70;;;;;;;19.23;100.00;94741.47;5005079;28;20215;-77
2022/06/26 03:27:29;;;;;;;11.30;4.68;;;;;;;19.10;100.00;94749.94;5002239;28;20976;-77
2022/06/26 03:30:08;;;;;;;13.40;4.85;;;;;;;19.07;100.00;94746.00;4997754;28;20204;-77
2022/06/26 03:32:52;;;;;;;9.32;5.10;;;;;;;19.04;100.00;94749.19;4991383;28;20207;-76
2022/06/26 03:35:34;;;;;;;14.02;5.25;;;;;;;19.11;100.00;94749.66;4997325;28;20270;-77
2022/06/26 03:38:15;;;;;;;10.65;5.43;;;;;;;19.14;100.00;94749.13;4997172;28;20212;-78
2022/06/26 03:40:56;;;;;;;10.98;5.50;;;;;;;19.11;100.00;94754.13;5008438;28;20230;-79
2022/06/26 03:43:34;;;;;;;8.05;5.15;;;;;;;19.07;100.00;94761.03;4999522;28;20258;-79
2022/06/26 03:46:09;;;;;;;11.88;5.00;;;;;;;18.99;100.00;94751.03;4992822;28;20208;-79
2022/06/26 03:48:55;;;;;;;8.43;5.18;;;;;;;19.04;100.00;94764.19;4993379;28;20696;-79
2022/06/26 03:51:34;;;;;;;11.00;5.60;;;;;;;19.04;100.00;94772.09;4993106;28;20210;-78
2022/06/26 03:54:18;;;;;;;10.50;5.50;;;;;;;19.04;100.00;94764.19;4990619;28;20212;-78
2022/06/26 03:56:57;;;;;;;10.38;5.25;;;;;;;19.24;100.00;94770.19;5001489;28;20199;-80
2022/06/26 03:59:37;;;;;;;12.27;5.60;;;;;;;19.36;100.00;94767.25;4999547;28;20259;-80
2022/06/26 04:02:09;;;;;;;11.23;5.78;;;;;;;19.17;100.00;94761.78;4997141;28;20203;-80
2022/06/26 04:04:52;;;;;;;9.90;5.38;;;;;;;19.07;100.00;94764.44;4991075;28;20208;-79
2022/06/26 04:07:28;;;;;;;13.43;6.18;;;;;;;18.98;100.00;94767.88;4971698;28;20213;-79
2022/06/26 04:10:05;;;;;;;12.68;5.70;;;;;;;18.94;100.00;94766.84;4974308;28;20222;-79
2022/06/26 04:12:42;;;;;;;11.98;6.15;;;;;;;18.92;100.00;94756.56;4977170;28;20261;-79
2022/06/26 04:15:28;;;;;;;14.10;6.13;;;;;;;19.19;100.00;94769.44;4980140;28;20196;-78
2022/06/26 04:18:09;;;;;;;10.40;5.95;;;;;;;19.25;100.00;94763.84;4976769;28;20231;-80
2022/06/26 04:20:43;;;;;;;12.55;6.88;;;;;;;19.28;100.00;94767.78;4975521;28;20676;-82
2022/06/26 04:23:23;;;;;;;12.85;5.78;;;;;;;19.21;100.00;94764.66;4970580;28;20201;-80
2022/06/26 04:26:04;;;;;;;11.90;6.65;;;;;;;19.23;100.00;94767.81;4971128;28;20701;-80
2022/06/26 04:28:45;;;;;;;12.75;8.20;;;;;;;19.15;100.00;94757.81;4972244;28;20204;-81
2022/06/26 04:31:26;;;;;;;12.63;7.95;;;;;;;18.98;100.00;94757.34;4975698;28;20288;-78
2022/06/26 04:34:02;;;;;;;15.55;8.27;;;;;;;19.05;100.00;94768.38;4978266;28;20359;-78
2022/06/26 04:36:51;;;;;;;17.05;12.48;;;;;;;19.19;100.00;94767.56;4972000;28;20208;-78
2022/06/26 04:39:30;;;;;;;19.65;11.98;;;;;;;19.19;100.00;94764.91;4974728;28;20245;-78
2022/06/26 04:42:15;;;;;;;20.40;13.60;;;;;;;19.23;100.00;94773.88;4973878;28;20603;-78
2022/06/26 04:44:52;;;;;;;23.30;13.95;;;;;;;19.22;100.00;94772.28;4979733;28;20209;-79
2022/06/26 04:47:31;;;;;;;22.40;13.02;;;;;;;19.20;100.00;94779.69;4977896;28;20238;-79
2022/06/26 04:50:09;;;;;;;17.75;10.95;;;;;;;19.14;100.00;94772.84;4977845;28;20211;-78
2022/06/26 04:52:54;;;;;;;17.98;10.90;;;;;;;19.28;100.00;94773.84;4974292;28;20196;-78
2022/06/26 04:55:33;;;;;;;19.67;12.30;;;;;;;19.40;100.00;94770.94;4971244;28;20208;-78
2022/06/26 04:58:09;;;;;;;18.55;13.43;;;;;;;19.41;100.00;94771.75;4973706;28;20275;-79
2022/06/26 05:00:48;;;;;;;23.25;14.50;;;;;;;19.36;100.00;94782.28;4981700;28;20215;-78
2022/06/26 05:03:26;;;;;;;20.08;13.18;;;;;;;19.35;100.00;94772.78;4976992;28;20208;-77
2022/06/26 05:06:03;;;;;;;16.13;9.25;;;;;;;19.35;100.00;94775.41;4977925;28;20235;-77
2022/06/26 05:08:36;;;;;;;11.18;7.95;;;;;;;19.33;100.00;94767.78;4991601;28;20338;-76
2022/06/26 05:11:13;;;;;;;15.02;8.30;;;;;;;19.37;100.00;94771.44;5000467;28;20661;-77
2022/06/26 05:13:49;;;;;;;10.50;6.93;;;;;;;19.46;100.00;94788.31;4992340;28;20199;-78
2022/06/26 05:16:25;;;;;;;7.15;5.50;;;;;;;19.52;100.00;94789.88;4993288;28;21144;-75
2022/06/26 05:19:00;;;;;;;11.38;5.88;;;;;;;19.72;100.00;94796.91;4988995;28;20308;-84
2022/06/26 05:21:36;;;;;;;9.60;5.28;;;;;;;19.78;100.00;94801.13;4986482;28;20284;-78
2022/06/26 05:24:10;;;;;;;13.00;5.72;;;;;;;19.72;100.00;94802.19;4990684;28;20199;-78
2022/06/26 05:26:44;;;;;;;12.68;6.38;;;;;;;19.68;100.00;94806.44;4989031;28;20226;-78
2022/06/26 05:29:20;;;;;;;11.40;6.18;;;;;;;19.76;100.00;94806.66;4996867;28;20734;-78
2022/06/26 05:31:52;;;;;;;9.63;5.85;;;;;;;19.84;100.00;94818.50;4986108;28;20296;-77
2022/06/26 05:34:24;;;;;;;8.00;5.85;;;;;;;19.94;100.00;94820.31;4990230;28;20259;-77
2022/06/26 05:36:58;;;;;;;9.00;6.28;;;;;;;19.97;100.00;94828.44;4985830;28;20678;-77
2022/06/26 05:39:37;;;;;;;10.18;6.22;;;;;;;20.03;100.00;94829.25;4987838;28;20255;-78
2022/06/26 05:42:13;;;;;;;7.88;5.20;;;;;;;20.19;100.00;94820.16;4985766;28;20663;-75
2022/06/26 05:44:51;;;;;;;11.80;5.82;;;;;;;20.21;100.00;94824.09;4987024;28;20202;-76
2022/06/26 05:47:28;;;;;;;8.82;5.40;;;;;;;20.31;100.00;94825.94;4980854;28;20650;-78
2022/06/26 05:50:00;;;;;;;10.63;6.00;;;;;;;20.41;100.00;94828.50;4990593;28;20283;-78
2022/06/26 05:52:33;;;;;;;10.35;6.18;;;;;;;20.35;100.00;94833.00;4990646;28;20200;-78
2022/06/26 05:55:14;;;;;;;10.75;5.32;;;;;;;20.13;100.00;94835.25;4989839;28;20196;-77
2022/06/26 05:57:50;;;;;;;11.15;5.60;;;;;;;19.90;100.00;94835.09;4981611;28;20196;-77
2022/06/26 06:00:27;;;;;;;9.52;5.80;;;;;;;19.86;100.00;94828.75;4982362;28;20295;-76
2022/06/26 06:02:59;;;;;;;10.68;6.30;;;;;;;19.92;100.00;94843.50;4989215;28;21039;-77
2022/06/26 06:05:38;;;;;;;12.00;6.75;;;;;;;20.07;100.00;94838.16;4989126;28;20237;-78
2022/06/26 06:08:15;;;;;;;13.63;6.47;;;;;;;20.19;100.00;94836.00;4983314;28;20741;-76
2022/06/26 06:10:56;;;;;;;13.18;6.25;;;;;;;20.33;100.00;94837.78;4983873;28;20199;-77
2022/06/26 06:13:36;;;;;;;12.25;6.28;;;;;;;20.36;100.00;94836.44;4983757;28;20204;-77
2022/06/26 06:16:06;;;;;;;10.82;6.50;;;;;;;20.35;100.00;94843.56;4981623;28;20204;-77
2022/06/26 06:18:39;;;;;;;13.75;6.18;;;;;;;20.20;100.00;94835.72;4978339;28;20516;-79
2022/06/26 06:21:11;;;;;;;8.93;6.35;;;;;;;19.94;100.00;94831.63;4984299;28;21121;-75
2022/06/26 06:23:44;;;;;;;9.55;6.10;;;;;;;19.96;100.00;94832.16;4982689;28;20208;-75
2022/06/26 06:26:23;;;;;;;10.45;6.13;;;;;;;19.93;100.00;94819.50;4989011;28;20284;-84
2022/06/26 06:28:56;;;;;;;9.25;5.57;;;;;;;20.17;100.00;94848.69;4987981;28;20223;-78
2022/06/26 06:31:34;;;;;;;8.30;5.80;;;;;;;20.17;100.00;94849.44;4993657;28;20224;-79
2022/06/26 06:34:12;;;;;;;9.27;5.95;;;;;;;20.23;100.00;94848.38;4985044;28;20250;-78
2022/06/26 06:36:48;;;;;;;9.98;6.13;;;;;;;20.32;100.00;94838.84;4981504;28;20219;-78
2022/06/26 06:39:23;;;;;;;8.43;5.65;;;;;;;20.38;100.00;94840.38;4980534;28;20287;-79
2022/06/26 06:42:05;;;;;;;7.07;5.35;;;;;;;20.50;100.00;94837.41;4981198;28;20200;-78
2022/06/26 06:44:47;;;;;;;9.98;5.82;;;;;;;20.64;100.00;94837.56;4998540;28;20219;-78
2022/06/26 06:47:23;;;;;;;11.57;6.10;;;;;;;20.77;100.00;94834.31;5000360;28;20224;-78
2022/06/26 06:50:01;;;;;;;7.82;6.05;;;;;;;20.93;100.00;94841.03;4990504;28;20705;-81
2022/06/26 06:52:39;;;;;;;11.43;6.18;;;;;;;20.84;100.00;94838.19;4989543;28;20664;-81
2022/06/26 06:55:14;;;;;;;13.05;5.97;;;;;;;20.72;100.00;94845.69;4988581;28;20211;-82
2022/06/26 06:57:54;;;;;;;11.43;6.32;;;;;;;20.75;100.00;94839.09;4985766;28;20211;-81
2022/06/26 07:00:34;;;;;;;9.88;5.82;;;;;;;20.78;100.00;94836.66;4989101;28;20686;-82
2022/06/26 07:03:13;;;;;;;11.32;6.07;;;;;;;20.85;100.00;94845.06;4990382;28;20207;-82
2022/06/26 07:05:51;;;;;;;9.48;5.72;;;;;;;20.89;100.00;94834.75;4990457;28;20287;-82
2022/06/26 07:08:29;;;;;;;9.68;6.47;;;;;;;20.99;100.00;94839.13;4987251;28;20223;-84
2022/06/26 07:11:06;;;;;;;11.55;6.80;;;;;;;21.24;100.00;94837.06;4990104;28;20211;-81
2022/06/26 07:13:52;;;;;;;11.65;7.32;;;;;;;21.45;100.00;94846.38;4993133;28;20211;-81
2022/06/26 07:16:28;;;;;;;11.00;5.75;;;;;;;21.45;100.00;94837.66;4992058;28;20208;-84
2022/06/26 07:19:04;;;;;;;8.75;5.20;;;;;;;21.49;100.00;94846.63;4993822;28;20706;-86
2022/06/26 07:21:43;;;;;;;13.20;5.88;;;;;;;21.46;100.00;94847.19;4994563;28;20302;-89
2022/06/26 07:24:29;;;;;;;11.18;5.22;;;;;;;21.50;100.00;94840.25;4993711;28;20203;-75
2022/06/26 07:27:14;;;;;;;10.60;4.95;;;;;;;21.59;100.00;94835.16;4993180;28;20246;-85
2022/06/26 07:30:02;;;;;;;12.25;5.32;;;;;;;21.54;100.00;94829.88;4990013;28;20215;-87
2022/06/26 07:32:43;;;;;;;11.02;5.57;;;;;;;21.70;100.00;94833.97;4995585;28;20231;-83
2022/06/26 07:35:30;;;;;;;7.65;5.50;;;;;;;21.77;100.00;94837.03;4996075;28;20199;-85
2022/06/26 07:38:09;;;;;;;10.95;5.40;;;;;;;21.83;100.00;94841.19;4998929;28;20286;-84
2022/06/26 07:40:46;;;;;;;9.70;5.75;;;;;;;21.63;100.00;94829.00;4998484;28;20208;-83
2022/06/26 07:43:25;;;;;;;9.95;5.43;;;;;;;21.56;100.00;94830.41;4997837;28;20200;-83
2022/06/26 07:46:08;;;;;;;8.07;5.18;;;;;;;21.41;100.00;94834.00;4991399;28;20794;-83
2022/06/26 07:48:49;;;;;;;12.10;5.65;;;;;;;21.43;100.00;94830.00;4992647;28;20227;-82
2022/06/26 07:51:28;;;;;;;9.15;5.50;;;;;;;21.43;100.00;94830.00;4998908;28;20211;-82
2022/06/26 07:54:04;;;;;;;7.78;5.20;;;;;;;21.44;100.00;94821.00;4996360;28;20201;-82
2022/06/26 07:56:44;;;;;;;11.55;5.30;;;;;;;21.74;100.00;94833.09;4994970;28;20235;-83
2022/06/26 07:59:23;;;;;;;9.32;5.13;;;;;;;21.83;100.00;94833.25;4994315;28;20204;-83
2022/06/26 08:02:05;;;;;;;11.43;6.10;;;;;;;22.01;100.00;94837.84;4990111;28;20200;-83
2022/06/26 08:04:45;;;;;;;9.40;5.35;;;;;;;22.17;100.00;94825.97;4994619;28;20212;-83
2022/06/26 08:07:29;;;;;;;12.45;5.45;;;;;;;22.24;100.00;94828.25;4993256;28;20247;-83
2022/06/26 08:10:09;;;;;;;7.68;5.22;;;;;;;22.36;100.00;94829.41;5003167;28;20594;-83
2022/06/26 08:12:48;;;;;;;8.93;4.93;;;;;;;22.41;100.00;94820.59;4998965;28;20195;-86
2022/06/26 08:15:28;;;;;;;8.57;5.38;;;;;;;22.46;100.00;94817.88;4991636;28;20203;-82
2022/06/26 08:18:11;;;;;;;9.38;4.90;;;;;;;22.66;100.00;94827.38;4998008;28;20204;-79
2022/06/26 08:20:51;;;;;;;11.65;5.00;;;;;;;22.68;100.00;94828.72;4988690;28;20206;-81
2022/06/26 08:23:29;;;;;;;7.75;4.30;;;;;;;22.79;97.43;94835.41;4990096;28;20231;-77
2022/06/26 08:26:10;;;;;;;7.78;4.45;;;;;;;22.88;97.94;94836.34;4993833;28;20200;-83
2022/06/26 08:28:44;;;;;;;9.30;5.28;;;;;;;22.98;99.00;94830.06;4995254;28;20233;-80
2022/06/26 08:31:21;;;;;;;13.48;5.10;;;;;;;23.09;98.07;94836.75;4991046;28;20597;-83
2022/06/26 08:33:57;;;;;;;8.50;5.18;;;;;;;23.26;95.65;94837.00;4996294;28;20231;-85
2022/06/26 08:36:33;;;;;;;16.65;5.47;;;;;;;23.43;94.46;94833.81;4996716;28;20196;-84
2022/06/26 08:39:08;;;;;;;12.02;5.47;;;;;;;23.57;94.11;94837.28;4989331;28;20391;-80
2022/06/26 08:41:47;;;;;;;10.60;4.75;;;;;;;23.64;94.54;94835.00;4993125;28;20688;-81
2022/06/26 08:44:18;;;;;;;10.95;5.20;;;;;;;23.60;93.63;94834.81;4990994;28;20224;-85
2022/06/26 08:46:58;;;;;;;7.25;5.40;;;;;;;23.70;92.55;94834.63;4989723;28;20560;-85
2022/06/26 08:49:38;;;;;;;11.88;5.65;;;;;;;23.53;91.27;94839.72;4990320;28;20220;-81
2022/06/26 08:52:15;;;;;;;8.10;4.65;;;;;;;23.37;91.48;94834.97;4990690;28;20204;-82
2022/06/26 08:54:53;;;;;;;7.15;4.30;;;;;;;23.37;89.26;94841.06;4986622;28;20206;-82
2022/06/26 08:57:48;;;;;;;6.63;4.28;;;;;;;23.32;89.81;94832.41;4992085;28;20215;-82
2022/06/26 09:00:23;;;;;;;7.93;4.50;;;;;;;23.15;92.25;94839.03;4988970;28;20201;-83
2022/06/26 09:03:03;;;;;;;8.30;4.20;;;;;;;23.04;91.60;94826.25;4992192;28;20199;-81
2022/06/26 09:05:43;;;;;;;7.93;4.70;;;;;;;23.21;91.24;94836.28;4992232;28;20244;-80
2022/06/26 09:08:31;;;;;;;7.05;4.60;;;;;;;23.19;92.12;94828.63;4987232;28;20223;-83
2022/06/26 09:11:07;;;;;;;7.47;4.32;;;;;;;23.28;88.98;94828.75;4993745;28;20208;-83
2022/06/26 09:13:53;;;;;;;10.43;5.60;;;;;;;23.34;87.66;94823.06;4990688;28;20212;-82
2022/06/26 09:16:39;;;;;;;10.13;4.88;;;;;;;23.37;88.00;94816.38;4996662;28;20633;-82
2022/06/26 09:19:16;;;;;;;7.57;4.18;;;;;;;23.39;88.28;94812.38;4999231;28;20874;-77
2022/06/26 09:22:13;;;;;;;6.60;3.88;;;;;;;23.51;88.38;94817.22;4996036;28;20202;-78
2022/06/26 09:25:02;;;;;;;5.57;3.97;;;;;;;23.65;89.28;94821.44;4991161;28;20275;-78
2022/06/26 09:27:45;;;;;;;6.60;4.10;;;;;;;23.89;90.72;94812.47;5000541;28;20211;-79
2022/06/26 09:30:20;;;;;;;8.35;4.00;;;;;;;24.09;89.97;94820.81;4991312;28;20286;-79
2022/06/26 09:32:51;;;;;;;8.40;4.20;;;;;;;24.28;89.08;94826.00;4990920;28;20235;-82
2022/06/26 09:35:24;;;;;;;8.35;4.43;;;;;;;24.35;86.18;94821.09;4991812;28;20606;-78
2022/06/26 09:38:02;;;;;;;5.90;4.28;;;;;;;24.49;87.12;94813.06;4989381;28;20675;-78
2022/06/26 09:40:39;;;;;;;7.63;3.70;;;;;;;24.66;82.72;94818.50;4993360;28;20202;-78
2022/06/26 09:43:09;;;;;;;6.18;3.65;;;;;;;24.75;84.08;94822.81;4995740;28;20317;-78
2022/06/26 09:45:52;;;;;;;6.20;3.90;;;;;;;24.97;83.11;94829.22;4990817;28;20199;-77
2022/06/26 09:48:32;;;;;;;7.75;3.83;;;;;;;25.13;82.59;94833.09;4987618;28;20264;-78
2022/06/26 09:51:13;;;;;;;6.15;3.50;;;;;;;25.16;77.86;94833.28;5002999;28;20207;-79
2022/06/26 09:53:55;;;;;;;5.05;3.28;;;;;;;25.25;78.18;94838.66;5003105;28;20645;-77
2022/06/26 09:56:35;;;;;;;6.30;3.20;;;;;;;25.20;75.07;94831.56;4986632;28;20263;-78
2022/06/26 09:59:06;;;;;;;7.82;3.42;;;;;;;25.19;78.07;94832.66;4995912;28;20242;-78
2022/06/26 10:07:15;;;;;;;5.63;3.70;;;;;;;25.33;73.14;94835.25;4986923;28;20250;-80
2022/06/26 10:09:52;;;;;;;5.47;2.85;;;;;;;25.35;75.48;94825.84;4994819;28;20219;-81
2022/06/26 10:12:32;;;;;;;5.20;3.40;;;;;;;25.47;76.42;94824.50;4994059;28;20705;-80
2022/06/26 10:15:11;;;;;;;5.32;3.13;;;;;;;25.52;76.17;94821.72;4994468;28;20219;-79
2022/06/26 10:18:07;;;;;;;4.82;2.83;;;;;;;25.74;77.17;94814.44;4996535;28;20588;-81
2022/06/26 10:20:44;;;;;;;5.60;3.53;;;;;;;26.01;73.72;94816.06;4997355;28;20203;-82
2022/06/26 10:23:15;;;;;;;7.10;3.33;;;;;;;26.15;74.66;94810.63;4985967;28;20231;-79
2022/06/26 10:25:52;;;;;;;5.57;4.00;;;;;;;26.32;74.60;94803.44;4998759;28;20204;-78
2022/06/26 10:28:28;;;;;;;4.80;3.50;;;;;;;26.50;73.73;94809.56;4996363;28;20306;-81
2022/06/26 10:31:09;;;;;;;6.68;3.65;;;;;;;26.65;72.81;94816.31;4989825;28;20262;-80
2022/06/26 10:33:51;;;;;;;5.90;3.55;;;;;;;26.69;72.30;94799.38;4996668;28;20615;-81
2022/06/26 10:36:25;;;;;;;5.38;3.13;;;;;;;26.89;73.52;94797.97;4992438;28;20210;-79
2022/06/26 10:39:10;;;;;;;8.30;4.18;;;;;;;27.01;71.08;94793.53;4993504;28;20196;-84
2022/06/26 10:45:09;;;;;;;7.28;4.22;;;;;;;27.20;67.33;94795.84;4994279;28;20373;-81
2022/06/26 10:47:53;;;;;;;6.28;3.40;;;;;;;27.19;67.38;94796.16;5003727;28;20317;-82
2022/06/26 10:50:41;;;;;;;5.88;3.38;;;;;;;27.31;68.59;94797.06;5000357;28;20213;-83
2022/06/26 10:53:25;;;;;;;7.35;3.10;;;;;;;27.51;66.23;94790.28;4997408;28;20204;-82
2022/06/26 10:56:05;;;;;;;7.43;3.13;;;;;;;27.70;66.88;94789.88;4994157;28;20283;-82
2022/06/26 10:58:53;;;;;;;3.75;2.60;;;;;;;27.90;65.04;94794.50;4995280;28;20448;-83
2022/06/26 11:01:32;;;;;;;4.32;2.40;;;;;;;27.69;61.20;94786.44;4996973;28;20206;-80
2022/06/26 11:04:10;;;;;;;5.75;2.30;;;;;;;27.76;57.66;94784.03;4991536;28;21297;-81
2022/06/26 11:06:48;;;;;;;4.90;2.33;;;;;;;27.78;58.24;94779.16;4995472;28;20471;-81
2022/06/26 11:09:29;;;;;;;4.70;2.35;;;;;;;28.04;54.40;94790.50;4994656;28;20235;-82
2022/06/26 11:12:09;;;;;;;2.22;2.00;;;;;;;27.97;53.12;94790.19;4991780;28;20204;-81
2022/06/26 11:14:49;;;;;;;2.47;2.10;;;;;;;27.83;53.35;94786.19;4994019;28;20243;-84
2022/06/26 11:17:29;;;;;;;6.82;2.75;;;;;;;27.87;54.96;94792.47;5001041;28;20295;-81
2022/06/26 11:23:01;;;;;;;4.80;2.30;;;;;;;28.35;54.61;94784.00;4997734;28;20199;-82
2022/06/26 11:25:36;;;;;;;5.97;2.50;;;;;;;28.67;54.53;94785.97;4994813;28;20235;-84
2022/06/26 11:28:16;;;;;;;4.63;2.25;;;;;;;28.94;55.27;94798.78;4997057;28;20211;-81
2022/06/26 11:30:58;;;;;;;4.13;2.50;;;;;;;28.93;56.60;94791.88;4989121;28;20200;-82
2022/06/26 11:33:35;;;;;;;10.20;2.78;;;;;;;28.67;57.91;94789.44;4996331;28;20234;-79
2022/06/26 11:36:12;;;;;;;5.00;2.65;;;;;;;28.55;58.43;94788.56;4995236;28;20213;-86
2022/06/26 11:38:52;;;;;;;4.72;2.33;;;;;;;28.38;60.70;94776.09;4993733;28;20195;-86
2022/06/26 11:41:25;;;;;;;4.95;2.67;;;;;;;28.32;61.31;94785.44;4996785;28;20203;-86
2022/06/26 11:44:01;;;;;;;5.55;2.78;;;;;;;28.21;62.02;94776.25;4994845;28;20666;-87
2022/06/26 11:46:34;;;;;;;6.05;2.55;;;;;;;28.21;59.74;94778.91;4994831;28;20685;-84
2022/06/26 11:49:05;;;;;;;12.20;3.38;;;;;;;28.39;59.24;94780.34;4997304;28;20239;-87
2022/06/26 11:51:36;;;;;;;5.45;2.60;;;;;;;28.35;57.40;94775.97;4998681;28;20654;-87
2022/06/26 11:54:04;;;;;;;4.60;2.83;;;;;;;28.52;58.54;94790.00;4990307;28;20231;-85
2022/06/26 11:56:35;;;;;;;6.65;2.40;;;;;;;28.46;59.84;94774.47;4991678;28;20215;-85
2022/06/26 11:59:05;;;;;;;7.38;2.83;;;;;;;28.22;59.87;94771.69;4995242;28;20207;-83
2022/06/26 12:01:38;;;;;;;7.18;2.47;;;;;;;28.27;60.15;94761.56;4995386;28;20784;-86
2022/06/26 12:04:08;;;;;;;5.28;2.40;;;;;;;28.39;58.69;94783.03;5001747;28;20583;-84
2022/06/26 12:06:46;;;;;;;5.72;2.30;;;;;;;28.39;59.00;94787.59;4993371;28;20326;-81
2022/06/26 12:09:25;;;;;;;6.40;2.50;;;;;;;28.14;57.48;94776.75;5001285;28;20728;-81
2022/06/26 12:11:58;;;;;;;8.02;3.00;;;;;;;27.83;59.66;94784.31;4998546;28;20315;-81
2022/06/26 12:14:29;;;;;;;8.40;2.85;;;;;;;27.80;57.98;94778.81;4995650;28;20214;-82
2022/06/26 12:17:07;;;;;;;6.70;2.90;;;;;;;27.81;57.36;94778.50;4992907;28;20215;-81
2022/06/26 12:19:45;;;;;;;7.57;2.60;;;;;;;27.89;56.05;94779.56;4997302;28;20624;-81
2022/06/26 12:22:31;;;;;;;5.32;2.70;;;;;;;27.94;59.58;94776.69;4992632;28;20204;-83
2022/06/26 12:25:14;;;;;;;6.18;2.65;;;;;;;27.98;59.17;94774.94;4993401;28;20626;-80
2022/06/26 12:27:49;;;;;;;8.82;2.53;;;;;;;28.20;61.28;94777.34;4995377;28;20686;-81
2022/06/26 12:30:27;;;;;;;4.60;2.90;;;;;;;28.09;64.86;94768.94;4994431;28;20235;-83
2022/06/26 12:33:07;;;;;;;7.53;3.30;;;;;;;27.77;67.45;94779.47;4995234;28;20203;-82
2022/06/26 12:35:46;;;;;;;4.82;2.75;;;;;;;27.97;65.30;94782.19;4997916;28;20199;-83
2022/06/26 12:38:28;;;;;;;4.85;2.80;;;;;;;27.87;65.01;94776.44;4994731;28;20275;-83